• Join FlightAware (Why Join?)
  • Login
  • US Flag 
06:43AM EST


 

Airport Tracker/Info


-or-


 

Live Flight TrackerFlight Track Log ✈ N662US ✈ 07-Jun-2013 ✈ RJAA / NRT - KJFK

Flight Track Log - Related Links

Times and Time Zones

All times are in EDT time to prevent confusion due to time zone crossing. See the N662US flight status page for this flight to view local times or setup timezone preferences in your user account.

Time Position Orientation Groundspeed Altitude Reporting Facility
EDT Latitude Longitude Course Direction KTS MPH feet Rate Location/Type
02:23AM 35.6790 140.4370 147° Southeast 188 216 2,700  Level FlightAware
02:24AM 35.6540 140.4550 150° Southeast 189 217 3,400 1,020 Climbing FlightAware
02:24AM 35.6440 140.4620 150° Southeast 203 234 3,500 420 Climbing FlightAware
02:24AM 35.6240 140.4770 149° Southeast 205 236 3,700 660 Climbing FlightAware
02:25AM 35.5940 140.4990 149° Southeast 246 283 4,100 840 Climbing FlightAware
02:26AM 35.5520 140.5350 145° Southeast 274 315 4,800 960 Climbing FlightAware
02:26AM 35.5450 140.5530 116° Southeast 279 321 5,000 1,620 Climbing FlightAware
02:26AM 35.5400 140.5830 102° East 283 326 5,600 2,040 Climbing FlightAware
02:26AM 35.5360 140.6320 96° East 293 337 6,700 1,680 Climbing FlightAware
02:27AM 35.5330 140.6690 96° East 302 348 7,100 420 Climbing FlightAware
02:27AM 35.5290 140.7190 96° East 302 348 7,100  Level FlightAware
02:28AM 35.5250 140.7610 97° East 301 346 7,100  Level FlightAware
02:28AM 35.5190 140.8160 98° East 302 348 7,100 660 Level FlightAware
02:29AM 35.5150 140.8550 97° East 304 350 7,700 1,800 Climbing FlightAware
02:29AM 35.5120 140.8860 97° East 305 351 8,500 2,520 Climbing FlightAware
02:30AM 35.5070 140.9400 96° East 309 356 9,700 1,980 Climbing FlightAware
02:30AM 35.5010 141.0000 97° East 323 372 10,600 1,020 Climbing FlightAware
02:31AM 35.4930 141.0820 97° East 363 418 11,100 780 Climbing FlightAware
02:32AM 35.4660 141.1850 108° East 403 464 11,800 1,140 Climbing FlightAware
02:32AM 35.4370 141.2770 111° Southeast 427 491 12,700 1,440 Climbing FlightAware
02:33AM 35.4040 141.3840 111° Southeast 442 509 13,900 1,380 Climbing FlightAware
02:34AM 35.3810 141.4590 111° Southeast 461 531 14,600 1,200 Climbing FlightAware
02:34AM 35.3420 141.5880 110° East 469 540 15,600 1,380 Climbing FlightAware
02:35AM 35.3120 141.6860 111° Southeast 473 544 16,700 1,560 Climbing FlightAware
02:36AM 35.2790 141.7900 111° Southeast 481 554 17,800 1,560 Climbing FlightAware
02:37AM 35.2450 141.8980 111° Southeast 486 559 19,000 1,380 Climbing FlightAware
02:37AM 35.2110 142.0080 111° Southeast 499 574 19,800 1,260 Climbing FlightAware
02:38AM 35.1710 142.1510 109° East 506 582 21,000 960 Climbing FlightAware
02:39AM 35.1640 142.2990 93° East 517 595 21,600 1,140 Climbing FlightAware
02:40AM 35.1790 142.4230 82° East 520 598 22,900 1,080 Climbing FlightAware
02:40AM 35.1950 142.5480 81° East 520 598 23,200 900 Climbing FlightAware
02:41AM 35.2440 142.6980 68° East 543 625 24,300 780 Climbing FlightAware
02:42AM 35.2680 142.7980 74° East 543 625 24,300  Level FlightAware
02:43AM 35.2960 142.9190 74° East 543 625 24,300  Level FlightAware
02:43AM 35.3180 143.0120 74° East 543 625 24,300  Level FlightAware
02:44AM 35.3400 143.1050 74° East 543 625 24,300  Level FlightAware
02:45AM 35.3680 143.2260 74° East 543 625 24,300  Level FlightAware
02:47AM 35.6080 143.3790 27° Northeast  Level Estimated
02:48AM 35.7377 143.4620 27° Northeast  Level Estimated
02:49AM 35.8673 143.5453 28° Northeast  Level Estimated
02:50AM 35.9968 143.6290 28° Northeast  Level Estimated
02:51AM 36.1263 143.7128 28° Northeast  Level Estimated
02:52AM 36.2557 143.7970 28° Northeast  Level Estimated
02:53AM 36.3851 143.8814 28° Northeast  Level Estimated
02:54AM 36.5144 143.9662 28° Northeast  Level Estimated
02:55AM 36.6437 144.0512 28° Northeast  Level Estimated
02:56AM 36.7729 144.1364 28° Northeast  Level Estimated
02:57AM 36.9025 144.2224 28° Northeast  Level Estimated
02:58AM 37.0321 144.3086 28° Northeast  Level Estimated
02:59AM 37.1617 144.3951 28° Northeast  Level Estimated
03:00AM 37.2911 144.4819 28° Northeast  Level Estimated
03:01AM 37.4205 144.5690 28° Northeast  Level Estimated
03:02AM 37.5499 144.6564 28° Northeast  Level Estimated
03:03AM 37.6792 144.7442 28° Northeast  Level Estimated
03:04AM 37.8084 144.8322 28° Northeast  Level Estimated
03:05AM 37.9375 144.9205 28° Northeast  Level Estimated
03:06AM 38.0666 145.0092 28° Northeast  Level Estimated
03:07AM 38.1956 145.0981 28° Northeast  Level Estimated
03:08AM 38.3246 145.1874 29° Northeast  Level Estimated
03:09AM 38.4535 145.2770 29° Northeast  Level Estimated
03:10AM 38.5823 145.3669 29° Northeast  Level Estimated
03:11AM 38.7110 145.4571 29° Northeast  Level Estimated
03:12AM 38.8397 145.5477 29° Northeast  Level Estimated
03:13AM 38.9683 145.6386 29° Northeast  Level Estimated
03:14AM 39.0968 145.7298 29° Northeast  Level Estimated
03:15AM 39.2253 145.8213 29° Northeast  Level Estimated
03:16AM 39.3537 145.9132 29° Northeast  Level Estimated
03:17AM 39.4820 146.0055 29° Northeast  Level Estimated
03:18AM 39.6102 146.0980 29° Northeast  Level Estimated
03:19AM 39.7384 146.1909 29° Northeast  Level Estimated
03:20AM 39.8665 146.2842 29° Northeast  Level Estimated
03:21AM 39.9945 146.3778 29° Northeast  Level Estimated
03:22AM 40.1225 146.4718 29° Northeast  Level Estimated
03:23AM 40.2503 146.5661 29° Northeast  Level Estimated
03:24AM 40.3781 146.6607 29° Northeast  Level Estimated
03:25AM 40.5058 146.7558 29° Northeast  Level Estimated
03:26AM 40.6335 146.8512 30° Northeast  Level Estimated
03:27AM 40.7610 146.9469 30° Northeast  Level Estimated
03:28AM 40.8885 147.0430 30° Northeast  Level Estimated
03:29AM 41.0159 147.1395 30° Northeast  Level Estimated
03:30AM 41.1432 147.2364 30° Northeast  Level Estimated
03:31AM 41.2705 147.3336 30° Northeast  Level Estimated
03:32AM 41.3976 147.4312 30° Northeast  Level Estimated
03:33AM 41.5247 147.5293 30° Northeast  Level Estimated
03:34AM 41.6517 147.6277 30° Northeast  Level Estimated
03:35AM 41.7786 147.7264 30° Northeast  Level Estimated
03:36AM 41.9054 147.8256 30° Northeast  Level Estimated
03:37AM 42.0327 147.9256 30° Northeast  Level Estimated
03:38AM 42.1598 148.0260 30° Northeast  Level Estimated
03:39AM 42.2869 148.1268 30° Northeast  Level Estimated
03:40AM 42.4139 148.2279 30° Northeast  Level Estimated
03:41AM 42.5408 148.3295 31° Northeast  Level Estimated
03:42AM 42.6676 148.4316 31° Northeast  Level Estimated
03:43AM 42.7944 148.5340 31° Northeast  Level Estimated
03:44AM 42.9210 148.6369 31° Northeast  Level Estimated
03:45AM 43.0475 148.7401 31° Northeast  Level Estimated
03:46AM 43.1740 148.8439 31° Northeast  Level Estimated
03:47AM 43.3003 148.9480 31° Northeast  Level Estimated
03:48AM 43.4266 149.0526 31° Northeast  Level Estimated
03:49AM 43.5528 149.1576 31° Northeast  Level Estimated
03:50AM 43.6788 149.2630 31° Northeast  Level Estimated
03:51AM 43.8048 149.3689 31° Northeast  Level Estimated
03:52AM 43.9307 149.4753 31° Northeast  Level Estimated
03:53AM 44.0564 149.5820 31° Northeast  Level Estimated
03:54AM 44.1821 149.6893 31° Northeast  Level Estimated
03:55AM 44.3077 149.7970 32° Northeast  Level Estimated
03:56AM 44.4332 149.9051 32° Northeast  Level Estimated
03:57AM 44.5585 150.0138 32° Northeast  Level Estimated
03:58AM 44.6838 150.1229 32° Northeast  Level Estimated
03:59AM 44.8089 150.2324 32° Northeast  Level Estimated
04:00AM 44.9340 150.3425 32° Northeast  Level Estimated
04:01AM 45.0589 150.4530 32° Northeast  Level Estimated
04:02AM 45.1838 150.5640 32° Northeast  Level Estimated
04:03AM 45.3085 150.6755 32° Northeast  Level Estimated
04:04AM 45.4331 150.7875 32° Northeast  Level Estimated
04:05AM 45.5576 150.9000 32° Northeast  Level Estimated
04:06AM 45.6820 151.0130 32° Northeast  Level Estimated
04:07AM 45.8063 151.1265 32° Northeast  Level Estimated
04:08AM 45.9305 151.2405 33° Northeast  Level Estimated
04:09AM 46.0546 151.3550 33° Northeast  Level Estimated
04:10AM 46.1785 151.4700 33° Northeast  Level Estimated
04:11AM 46.3024 151.5856 33° Northeast  Level Estimated
04:12AM 46.4261 151.7016 33° Northeast  Level Estimated
04:13AM 46.5497 151.8182 33° Northeast  Level Estimated
04:14AM 46.6732 151.9353 33° Northeast  Level Estimated
04:15AM 46.7965 152.0530 33° Northeast  Level Estimated
04:16AM 46.9198 152.1712 33° Northeast  Level Estimated
04:17AM 47.0429 152.2899 33° Northeast  Level Estimated
04:18AM 47.1659 152.4092 33° Northeast  Level Estimated
04:19AM 47.2892 152.5296 33° Northeast  Level Estimated
04:20AM 47.4123 152.6503 34° Northeast  Level Estimated
04:21AM 47.5353 152.7716 34° Northeast  Level Estimated
04:22AM 47.6583 152.8937 34° Northeast  Level Estimated
04:23AM 47.7812 153.0163 34° Northeast  Level Estimated
04:24AM 47.9039 153.1395 34° Northeast  Level Estimated
04:25AM 48.0265 153.2633 34° Northeast  Level Estimated
04:26AM 48.1490 153.3877 34° Northeast  Level Estimated
04:27AM 48.2713 153.5127 34° Northeast  Level Estimated
04:28AM 48.3935 153.6383 34° Northeast  Level Estimated
04:29AM 48.5156 153.7644 34° Northeast  Level Estimated
04:30AM 48.6375 153.8912 34° Northeast  Level Estimated
04:31AM 48.7593 154.0186 35° Northeast  Level Estimated
04:32AM 48.8809 154.1467 35° Northeast  Level Estimated
04:33AM 49.0024 154.2753 35° Northeast  Level Estimated
04:34AM 49.1238 154.4046 35° Northeast  Level Estimated
04:35AM 49.2450 154.5345 35° Northeast  Level Estimated
04:36AM 49.3661 154.6650 35° Northeast  Level Estimated
04:37AM 49.4870 154.7962 35° Northeast  Level Estimated
04:38AM 49.6078 154.9281 35° Northeast  Level Estimated
04:39AM 49.7284 155.0606 35° Northeast  Level Estimated
04:40AM 49.8489 155.1937 35° Northeast  Level Estimated
04:41AM 49.9692 155.3275 36° Northeast  Level Estimated
04:42AM 50.0893 155.4620 36° Northeast  Level Estimated
04:43AM 50.2093 155.5972 36° Northeast  Level Estimated
04:44AM 50.3292 155.7331 36° Northeast  Level Estimated
04:45AM 50.4489 155.8696 36° Northeast  Level Estimated
04:46AM 50.5684 156.0068 36° Northeast  Level Estimated
04:47AM 50.6878 156.1447 36° Northeast  Level Estimated
04:48AM 50.8069 156.2834 36° Northeast  Level Estimated
04:49AM 50.9260 156.4227 36° Northeast  Level Estimated
04:50AM 51.0449 156.5628 37° Northeast  Level Estimated
04:51AM 51.1636 156.7035 37° Northeast  Level Estimated
04:52AM 51.2821 156.8450 37° Northeast  Level Estimated
04:53AM 51.4005 156.9873 37° Northeast  Level Estimated
04:54AM 51.5186 157.1302 37° Northeast  Level Estimated
04:55AM 51.6367 157.2739 37° Northeast  Level Estimated
04:56AM 51.7545 157.4184 37° Northeast  Level Estimated
04:57AM 51.8721 157.5636 37° Northeast  Level Estimated
04:58AM 51.9896 157.7096 37° Northeast  Level Estimated
04:59AM 52.1069 157.8563 38° Northeast  Level Estimated
05:00AM 52.2240 158.0038 38° Northeast  Level Estimated
05:01AM 52.3410 158.1521 38° Northeast  Level Estimated
05:01AM 42.9667 169.2833 86° East 536 617 32,000  Level Oakland Oceanic (ODAPS)
05:02AM 52.4577 158.3012 38° Northeast  Level Estimated
05:03AM 52.5742 158.4511 38° Northeast  Level Estimated
05:04AM 52.6906 158.6017 38° Northeast  Level Estimated
05:05AM 52.8068 158.7532 38° Northeast  Level Estimated
05:05AM 43.0000 170.0000 79° East 531 611 32,000  Level Oakland Oceanic (ODAPS)
05:06AM 52.9232 158.9061 38° Northeast  Level Estimated
05:07AM 43.0860 170.6016 79° East 536 617 32,000  Level FlightAware Transoceanic
05:08AM 43.1140 170.8025 79° East 536 617 32,000  Level FlightAware Transoceanic
05:09AM 43.1416 171.0036 79° East 536 617 32,000  Level FlightAware Transoceanic
05:10AM 43.1689 171.2049 80° East 536 617 32,000  Level FlightAware Transoceanic
05:11AM 43.1921 171.3781 80° East 531 611 32,000  Level FlightAware Transoceanic
05:12AM 43.2182 171.5757 80° East 531 611 32,000  Level FlightAware Transoceanic
05:13AM 43.2439 171.7734 80° East 531 611 32,000  Level FlightAware Transoceanic
05:14AM 43.2693 171.9713 80° East 531 611 32,000  Level FlightAware Transoceanic
05:15AM 43.2944 172.1694 80° East 531 611 32,000  Level FlightAware Transoceanic
05:16AM 43.3191 172.3676 80° East 531 611 32,000  Level FlightAware Transoceanic
05:17AM 43.3435 172.5660 80° East 531 611 32,000  Level FlightAware Transoceanic
05:18AM 43.3675 172.7646 81° East 531 611 32,000  Level FlightAware Transoceanic
05:19AM 43.3912 172.9633 81° East 531 611 32,000  Level FlightAware Transoceanic
05:20AM 43.4145 173.1622 81° East 531 611 32,000  Level FlightAware Transoceanic
05:21AM 43.4375 173.3612 81° East 531 611 32,000  Level FlightAware Transoceanic
05:22AM 43.4602 173.5603 81° East 531 611 32,000  Level FlightAware Transoceanic
05:23AM 43.4825 173.7596 81° East 531 611 32,000  Level FlightAware Transoceanic
05:24AM 43.5045 173.9591 81° East 531 611 32,000  Level FlightAware Transoceanic
05:25AM 43.5261 174.1587 82° East 531 611 32,000  Level FlightAware Transoceanic
05:26AM 43.5474 174.3584 82° East 531 611 32,000  Level FlightAware Transoceanic
05:27AM 43.5683 174.5583 82° East 531 611 32,000  Level FlightAware Transoceanic
05:27AM 43.5667 174.5333 82° East 529 609 32,000  Level Oakland Oceanic (ODAPS)
05:28AM 43.5888 174.7583 82° East 531 611 32,000  Level FlightAware Transoceanic
05:29AM 43.6091 174.9585 82° East 531 611 32,000  Level FlightAware Transoceanic
05:30AM 43.6289 175.1588 82° East 531 611 32,000  Level FlightAware Transoceanic
05:31AM 43.6485 175.3592 82° East 531 611 32,000  Level FlightAware Transoceanic
05:32AM 43.6676 175.5598 83° East 531 611 32,000  Level FlightAware Transoceanic
05:33AM 43.6854 175.7409 83° East 529 609 32,000  Level FlightAware Transoceanic
05:34AM 43.7040 175.9427 83° East 529 609 32,000  Level FlightAware Transoceanic
05:35AM 43.7222 176.1445 83° East 529 609 32,000  Level FlightAware Transoceanic
05:36AM 43.7400 176.3465 83° East 529 609 32,000  Level FlightAware Transoceanic
05:37AM 43.7575 176.5486 83° East 529 609 32,000  Level FlightAware Transoceanic
05:38AM 43.7747 176.7507 83° East 529 609 32,000  Level FlightAware Transoceanic
05:39AM 43.7914 176.9531 84° East 529 609 32,000  Level FlightAware Transoceanic
05:40AM 43.8078 177.1555 84° East 529 609 32,000  Level FlightAware Transoceanic
05:41AM 43.8239 177.3580 84° East 529 609 32,000  Level FlightAware Transoceanic
05:42AM 43.8396 177.5607 84° East 529 609 32,000  Level FlightAware Transoceanic
05:43AM 43.8549 177.7634 84° East 529 609 32,000  Level FlightAware Transoceanic
05:44AM 43.8699 177.9663 84° East 529 609 32,000  Level FlightAware Transoceanic
05:45AM 43.8846 178.1693 84° East 529 609 32,000  Level FlightAware Transoceanic
05:46AM 43.8988 178.3723 85° East 529 609 32,000  Level FlightAware Transoceanic
05:47AM 43.9127 178.5755 85° East 529 609 32,000  Level FlightAware Transoceanic
05:48AM 43.9263 178.7787 85° East 529 609 32,000  Level FlightAware Transoceanic
05:49AM 43.9395 178.9820 85° East 529 609 32,000  Level FlightAware Transoceanic
05:50AM 43.9523 179.1855 85° East 529 609 32,000  Level FlightAware Transoceanic
05:51AM 43.9648 179.3890 85° East 529 609 32,000  Level FlightAware Transoceanic
05:52AM 43.9769 179.5926 85° East 529 609 32,000  Level FlightAware Transoceanic
05:53AM 43.9886 179.7962 85° East 529 609 32,000  Level FlightAware Transoceanic
05:53AM 44.0000 -180.0000 79° East 543 625 32,000  Level Oakland Oceanic (ODAPS)
05:54AM 44.0000 -180.0000 79° East 529 609 32,000  Level FlightAware Transoceanic
05:54AM 44.0000 -180.0000 79° East 538 619 32,000  Level Oakland Oceanic (ODAPS)
05:55AM 44.0296 -179.7956 79° East 529 609 32,000  Level FlightAware Transoceanic
05:56AM 44.0589 -179.5910 79° East 529 609 32,000  Level FlightAware Transoceanic
05:57AM 44.0878 -179.3862 79° East 529 609 32,000  Level FlightAware Transoceanic
05:58AM 44.1163 -179.1812 79° East 529 609 32,000  Level FlightAware Transoceanic
05:59AM 44.1445 -178.9760 79° East 529 609 32,000  Level FlightAware Transoceanic
06:00AM 44.1723 -178.7706 79° East 538 619 32,000  Level FlightAware Transoceanic
06:01AM 44.1998 -178.5651 80° East 538 619 32,000  Level FlightAware Transoceanic
06:02AM 44.2268 -178.3593 80° East 538 619 32,000  Level FlightAware Transoceanic
06:03AM 44.2535 -178.1533 80° East 538 619 32,000  Level FlightAware Transoceanic
06:03AM 44.2667 -178.0500 80° East 538 619 32,000  Level Oakland Oceanic (ODAPS)
06:04AM 44.2799 -177.9472 80° East 538 619 32,000  Level FlightAware Transoceanic
06:05AM 44.3058 -177.7409 80° East 538 619 32,000  Level FlightAware Transoceanic
06:06AM 44.3314 -177.5344 80° East 538 619 32,000  Level FlightAware Transoceanic
06:07AM 44.3566 -177.3277 80° East 538 619 32,000  Level FlightAware Transoceanic
06:08AM 44.3815 -177.1208 81° East 538 619 32,000  Level FlightAware Transoceanic
06:09AM 44.4161 -176.8259 81° East 538 619 32,000  Level FlightAware Transoceanic
06:10AM 44.4397 -176.6213 81° East 538 619 32,000  Level FlightAware Transoceanic
06:11AM 44.4630 -176.4165 81° East 538 619 32,000  Level FlightAware Transoceanic
06:12AM 44.4859 -176.2115 81° East 538 619 32,000  Level FlightAware Transoceanic
06:13AM 44.5084 -176.0065 81° East 538 619 32,000  Level FlightAware Transoceanic
06:14AM 44.5306 -175.8012 81° East 538 619 32,000  Level FlightAware Transoceanic
06:15AM 44.5524 -175.5958 82° East 538 619 32,000  Level FlightAware Transoceanic
06:16AM 44.5738 -175.3902 82° East 538 619 32,000  Level FlightAware Transoceanic
06:17AM 44.5949 -175.1845 82° East 538 619 32,000  Level FlightAware Transoceanic
06:18AM 44.6156 -174.9786 82° East 538 619 32,000  Level FlightAware Transoceanic
06:19AM 44.6359 -174.7726 82° East 538 619 32,000  Level FlightAware Transoceanic
06:20AM 44.6558 -174.5665 82° East 538 619 32,000 600 Level FlightAware Transoceanic
06:20AM 44.6667 -174.4833 82° East 546 628 33,000  Climbing Oakland Oceanic (ODAPS)
06:21AM 44.6754 -174.3602 82° East 538 619 32,000 -720 Descending FlightAware Transoceanic
06:22AM 44.6946 -174.1537 83° East 538 619 32,000  Level FlightAware Transoceanic
06:23AM 44.7134 -173.9472 83° East 538 619 32,000  Level FlightAware Transoceanic
06:24AM 44.7319 -173.7405 83° East 538 619 32,000  Level FlightAware Transoceanic
06:25AM 44.7500 -173.5336 83° East 538 619 32,000 480 Level FlightAware Transoceanic
06:26AM 44.7798 -173.2079 83° East 546 628 33,000 480 Climbing FlightAware Transoceanic
06:27AM 44.7972 -172.9948 83° East 546 628 33,000  Level FlightAware Transoceanic
06:28AM 44.8143 -172.7816 84° East 546 628 33,000  Level FlightAware Transoceanic
06:29AM 44.8310 -172.5683 84° East 546 628 33,000  Level FlightAware Transoceanic
06:30AM 44.8473 -172.3549 84° East 546 628 33,000  Level FlightAware Transoceanic
06:31AM 44.8632 -172.1414 84° East 546 628 33,000  Level FlightAware Transoceanic
06:32AM 44.8786 -171.9277 84° East 546 628 33,000  Level FlightAware Transoceanic
06:33AM 44.8937 -171.7139 84° East 546 628 33,000  Level FlightAware Transoceanic
06:34AM 44.9084 -171.5000 85° East 546 628 33,000  Level FlightAware Transoceanic
06:35AM 44.9227 -171.2861 85° East 546 628 33,000  Level FlightAware Transoceanic
06:36AM 44.9366 -171.0720 85° East 546 628 33,000  Level FlightAware Transoceanic
06:37AM 44.9501 -170.8578 85° East 546 628 33,000  Level FlightAware Transoceanic
06:38AM 44.9632 -170.6435 85° East 546 628 33,000  Level FlightAware Transoceanic
06:39AM 44.9758 -170.4291 85° East 546 628 33,000  Level FlightAware Transoceanic
06:40AM 44.9881 -170.2146 85° East 546 628 33,000  Level FlightAware Transoceanic
06:41AM 45.0000 -170.0000 78° East 546 628 33,000  Level FlightAware Transoceanic
06:42AM 45.0296 -169.7957 78° East 546 628 33,000  Level FlightAware Transoceanic
06:42AM 45.0000 -170.0000 78° East 538 619 33,000  Level Oakland Oceanic (ODAPS)
06:43AM 45.0589 -169.5913 79° East 546 628 33,000  Level FlightAware Transoceanic
06:44AM 45.0878 -169.3866 79° East 546 628 33,000  Level FlightAware Transoceanic
06:45AM 45.1163 -169.1817 79° East 546 628 33,000  Level FlightAware Transoceanic
06:46AM 45.1445 -168.9767 79° East 546 628 33,000  Level FlightAware Transoceanic
06:47AM 45.1723 -168.7714 79° East 546 628 33,000  Level FlightAware Transoceanic
06:47AM 45.1500 -168.9000 79° East 533 613 33,000  Level Oakland Oceanic (ODAPS)
06:48AM 45.1758 -168.7451 79° East 538 619 33,000  Level FlightAware Transoceanic
06:49AM 45.2038 -168.5353 79° East 538 619 33,000  Level FlightAware Transoceanic
06:50AM 45.2314 -168.3252 80° East 538 619 33,000  Level FlightAware Transoceanic
06:51AM 45.2586 -168.1149 80° East 538 619 33,000  Level FlightAware Transoceanic
06:52AM 45.2854 -167.9044 80° East 538 619 33,000  Level FlightAware Transoceanic
06:53AM 45.3098 -167.6758 80° East 533 613 33,000  Level FlightAware Transoceanic
06:54AM 45.3352 -167.4711 80° East 533 613 33,000  Level FlightAware Transoceanic
06:55AM 45.3602 -167.2662 80° East 533 613 33,000  Level FlightAware Transoceanic
06:56AM 45.3848 -167.0612 80° East 533 613 33,000  Level FlightAware Transoceanic
06:57AM 45.4091 -166.8559 81° East 533 613 33,000  Level FlightAware Transoceanic
06:58AM 45.4329 -166.6505 81° East 533 613 33,000  Level FlightAware Transoceanic
06:59AM 45.4565 -166.4449 81° East 533 613 33,000  Level FlightAware Transoceanic
07:00AM 45.4796 -166.2392 81° East 533 613 33,000  Level FlightAware Transoceanic
07:01AM 45.5024 -166.0332 81° East 533 613 33,000  Level FlightAware Transoceanic
07:02AM 45.5248 -165.8272 81° East 533 613 33,000  Level FlightAware Transoceanic
07:03AM 45.5469 -165.6209 81° East 533 613 33,000  Level FlightAware Transoceanic
07:04AM 45.5686 -165.4145 82° East 533 613 33,000  Level FlightAware Transoceanic
07:05AM 45.5899 -165.2079 82° East 533 613 33,000  Level FlightAware Transoceanic
07:06AM 45.6108 -165.0012 82° East 533 613 33,000  Level FlightAware Transoceanic
07:07AM 45.6313 -164.7943 82° East 533 613 33,000  Level FlightAware Transoceanic
07:08AM 45.6515 -164.5873 82° East 533 613 33,000  Level FlightAware Transoceanic
07:09AM 45.6713 -164.3801 82° East 533 613 33,000  Level FlightAware Transoceanic
07:10AM 45.6908 -164.1728 82° East 533 613 33,000  Level FlightAware Transoceanic
07:11AM 45.7098 -163.9654 83° East 533 613 33,000  Level FlightAware Transoceanic
07:12AM 45.7285 -163.7578 83° East 533 613 33,000  Level FlightAware Transoceanic
07:13AM 45.7468 -163.5500 83° East 533 613 33,000  Level FlightAware Transoceanic
07:13AM 45.7667 -163.3833 83° East 532 612 33,000  Level Oakland Oceanic (ODAPS)
07:14AM 45.7647 -163.3421 83° East 533 613 33,000  Level FlightAware Transoceanic
07:15AM 45.7823 -163.1341 83° East 533 613 33,000  Level FlightAware Transoceanic
07:16AM 45.7995 -162.9260 83° East 533 613 33,000  Level FlightAware Transoceanic
07:17AM 45.8162 -162.7177 83° East 533 613 33,000  Level FlightAware Transoceanic
07:18AM 45.8327 -162.5094 84° East 533 613 33,000  Level FlightAware Transoceanic
07:19AM 45.8487 -162.3008 84° East 533 613 33,000  Level FlightAware Transoceanic
07:20AM 45.8659 -162.1180 84° East 532 612 33,000  Level FlightAware Transoceanic
07:21AM 45.8810 -161.9066 84° East 532 612 33,000  Level FlightAware Transoceanic
07:22AM 45.8958 -161.6952 84° East 532 612 33,000  Level FlightAware Transoceanic
07:23AM 45.9102 -161.4837 84° East 532 612 33,000  Level FlightAware Transoceanic
07:24AM 45.9242 -161.2720 85° East 532 612 33,000  Level FlightAware Transoceanic
07:25AM 45.9378 -161.0603 85° East 532 612 33,000  Level FlightAware Transoceanic
07:26AM 45.9510 -160.8484 85° East 532 612 33,000  Level FlightAware Transoceanic
07:27AM 45.9639 -160.6364 85° East 532 612 33,000  Level FlightAware Transoceanic
07:28AM 45.9763 -160.4244 85° East 532 612 33,000  Level FlightAware Transoceanic
07:29AM 45.9883 -160.2122 85° East 532 612 33,000  Level FlightAware Transoceanic
07:30AM 46.0000 -160.0000 70° East 532 612 33,000  Level FlightAware Transoceanic
07:30AM 46.0000 -160.0000 70° East 567 652 33,000  Level Oakland Oceanic (ODAPS)
07:31AM 46.0562 -159.7763 70° East 532 612 33,000  Level FlightAware Transoceanic
07:32AM 46.1119 -159.5522 70° East 532 612 33,000  Level FlightAware Transoceanic
07:33AM 46.1672 -159.3276 71° East 532 612 33,000  Level FlightAware Transoceanic
07:34AM 46.2221 -159.1026 71° East 532 612 33,000  Level FlightAware Transoceanic
07:35AM 46.2765 -158.8771 71° East 532 612 33,000  Level FlightAware Transoceanic
07:36AM 46.3161 -158.7115 71° East 567 652 33,000  Level FlightAware Transoceanic
07:37AM 46.3674 -158.4953 71° East 567 652 33,000  Level FlightAware Transoceanic
07:38AM 46.4182 -158.2787 71° East 567 652 33,000  Level FlightAware Transoceanic
07:39AM 46.4687 -158.0617 71° East 567 652 33,000  Level FlightAware Transoceanic
07:40AM 46.5187 -157.8443 72° East 567 652 33,000 180 Level FlightAware Transoceanic
07:40AM 46.5333 -157.7667 72° East 578 665 33,300  Climbing Oakland Oceanic (ODAPS)
07:41AM 46.5683 -157.6265 72° East 567 652 33,000 -240 Descending FlightAware Transoceanic
07:42AM 46.6175 -157.4083 72° East 567 652 33,000  Level FlightAware Transoceanic
07:43AM 46.6663 -157.1897 72° East 567 652 33,000  Level FlightAware Transoceanic
07:44AM 46.7147 -156.9707 72° East 567 652 33,000  Level FlightAware Transoceanic
07:45AM 46.7627 -156.7514 72° East 567 652 33,000 120 Level FlightAware Transoceanic
07:46AM 46.8299 -156.4282 73° East 578 665 33,300 120 Climbing FlightAware Transoceanic
07:47AM 46.8778 -156.2037 73° East 578 665 33,300  Level FlightAware Transoceanic
07:48AM 46.9252 -155.9788 73° East 578 665 33,300  Level FlightAware Transoceanic
07:49AM 46.9722 -155.7535 73° East 578 665 33,300  Level FlightAware Transoceanic
07:50AM 47.0188 -155.5278 73° East 578 665 33,300  Level FlightAware Transoceanic
07:51AM 47.0649 -155.3018 73° East 578 665 33,300  Level FlightAware Transoceanic
07:52AM 47.1106 -155.0753 74° East 578 665 33,300  Level FlightAware Transoceanic
07:53AM 47.1558 -154.8484 74° East 578 665 33,300  Level FlightAware Transoceanic
07:54AM 47.2006 -154.6212 74° East 578 665 33,300  Level FlightAware Transoceanic
07:55AM 47.2450 -154.3936 74° East 578 665 33,300  Level FlightAware Transoceanic
07:56AM 47.2889 -154.1656 74° East 578 665 33,300  Level FlightAware Transoceanic
07:57AM 47.3323 -153.9372 74° East 578 665 33,300  Level FlightAware Transoceanic
07:58AM 47.3753 -153.7085 75° East 578 665 33,300  Level FlightAware Transoceanic
07:59AM 47.4178 -153.4794 75° East 578 665 33,300  Level FlightAware Transoceanic
08:00AM 47.4599 -153.2499 75° East 578 665 33,300  Level FlightAware Transoceanic
08:01AM 47.5015 -153.0200 75° East 578 665 33,300  Level FlightAware Transoceanic
08:02AM 47.5426 -152.7898 75° East 578 665 33,300  Level FlightAware Transoceanic
08:03AM 47.5833 -152.5592 75° East 578 665 33,300  Level FlightAware Transoceanic
08:04AM 47.6235 -152.3283 76° East 578 665 33,300  Level FlightAware Transoceanic
08:05AM 47.6633 -152.0970 76° East 578 665 33,300  Level FlightAware Transoceanic
08:06AM 47.7026 -151.8653 76° East 578 665 33,300  Level FlightAware Transoceanic
08:07AM 47.7414 -151.6334 76° East 578 665 33,300 540 Level FlightAware Transoceanic
08:07AM 47.7333 -151.6333 76° East 617 710 34,000  Climbing Oakland Oceanic (ODAPS)
08:08AM 47.7798 -151.4010 76° East 578 665 33,300 -420 Descending FlightAware Transoceanic
08:09AM 47.8176 -151.1684 76° East 578 665 33,300  Level FlightAware Transoceanic
08:10AM 47.8551 -150.9353 77° East 578 665 33,300  Level FlightAware Transoceanic
08:11AM 47.8920 -150.7020 77° East 578 665 33,300  Level FlightAware Transoceanic
08:12AM 47.9285 -150.4683 77° East 578 665 33,300 300 Level FlightAware Transoceanic
08:13AM 47.9633 -150.2343 77° East 617 710 34,000 300 Climbing FlightAware Transoceanic
08:14AM 48.0000 -150.0000 78° East 617 710 34,000  Level FlightAware Transoceanic
08:14AM 48.0000 -150.0000 78° East 624 718 34,000  Level Oakland Oceanic (ODAPS)
08:15AM 48.0373 -149.7425 78° East 617 710 34,000  Level FlightAware Transoceanic
08:16AM 48.0740 -149.4847 78° East 617 710 34,000  Level FlightAware Transoceanic
08:17AM 48.1101 -149.2265 78° East 617 710 34,000  Level FlightAware Transoceanic
08:18AM 48.1457 -148.9679 78° East 617 710 34,000  Level FlightAware Transoceanic
08:19AM 48.1806 -148.7089 79° East 617 710 34,000  Level FlightAware Transoceanic
08:20AM 48.2150 -148.4497 79° East 624 718 34,000  Level FlightAware Transoceanic
08:21AM 48.2488 -148.1900 79° East 624 718 34,000  Level FlightAware Transoceanic
08:22AM 48.2820 -147.9301 79° East 624 718 34,000  Level FlightAware Transoceanic
08:23AM 48.3147 -147.6698 79° East 624 718 34,000  Level FlightAware Transoceanic
08:24AM 48.3467 -147.4091 80° East 624 718 34,000  Level FlightAware Transoceanic
08:25AM 48.3782 -147.1482 80° East 624 718 34,000  Level FlightAware Transoceanic
08:26AM 48.4090 -146.8869 80° East 624 718 34,000  Level FlightAware Transoceanic
08:27AM 48.4393 -146.6253 80° East 624 718 34,000  Level FlightAware Transoceanic
08:28AM 48.4689 -146.3634 80° East 624 718 34,000  Level FlightAware Transoceanic
08:29AM 48.4980 -146.1012 81° East 624 718 34,000  Level FlightAware Transoceanic
08:30AM 48.5265 -145.8387 81° East 624 718 34,000  Level FlightAware Transoceanic
08:31AM 48.5544 -145.5759 81° East 624 718 34,000  Level FlightAware Transoceanic
08:32AM 48.5817 -145.3128 81° East 624 718 34,000  Level FlightAware Transoceanic
08:33AM 48.6084 -145.0495 81° East 624 718 34,000  Level FlightAware Transoceanic
08:33AM 48.6333 -144.8167 82° East 624 718 34,000  Level Oakland Oceanic (ODAPS)
08:34AM 48.6345 -144.7858 82° East 624 718 34,000  Level FlightAware Transoceanic
08:35AM 48.6599 -144.5219 82° East 624 718 34,000  Level FlightAware Transoceanic
08:36AM 48.6848 -144.2577 82° East 624 718 34,000  Level FlightAware Transoceanic
08:37AM 48.7091 -143.9933 82° East 624 718 34,000  Level FlightAware Transoceanic
08:38AM 48.7328 -143.7286 82° East 624 718 34,000  Level FlightAware Transoceanic
08:39AM 48.7558 -143.4637 83° East 624 718 34,000  Level FlightAware Transoceanic
08:40AM 48.7778 -143.2192 83° East 624 718 34,000  Level FlightAware Transoceanic
08:41AM 48.7998 -142.9521 83° East 624 718 34,000  Level FlightAware Transoceanic
08:42AM 48.8211 -142.6847 83° East 624 718 34,000  Level FlightAware Transoceanic
08:43AM 48.8418 -142.4171 83° East 624 718 34,000  Level FlightAware Transoceanic
08:44AM 48.8618 -142.1494 84° East 624 718 34,000  Level FlightAware Transoceanic
08:45AM 48.8813 -141.8814 84° East 624 718 34,000  Level FlightAware Transoceanic
08:46AM 48.9001 -141.6132 84° East 624 718 34,000  Level FlightAware Transoceanic
08:47AM 48.9183 -141.3448 84° East 624 718 34,000  Level FlightAware Transoceanic
08:48AM 48.9359 -141.0762 84° East 624 718 34,000  Level FlightAware Transoceanic
08:49AM 48.9529 -140.8074 85° East 624 718 34,000  Level FlightAware Transoceanic
08:50AM 48.9692 -140.5384 85° East 624 718 34,000  Level FlightAware Transoceanic
08:51AM 48.9849 -140.2693 85° East 624 718 34,000  Level FlightAware Transoceanic
08:52AM 49.0000 -140.0000 87° East 624 718 34,000  Level FlightAware Transoceanic
08:53AM 49.0082 -139.7400 87° East 624 718 34,000  Level FlightAware Transoceanic
08:54AM 49.0158 -139.4800 88° East 624 718 34,000  Level FlightAware Transoceanic
08:54AM 49.0000 -140.0000 87° East 625 719 34,000  Level Oakland Oceanic (ODAPS)
08:55AM 49.0229 -139.2199 88° East 624 718 34,000  Level FlightAware Transoceanic
08:56AM 49.0293 -138.9597 88° East 624 718 34,000  Level FlightAware Transoceanic
08:57AM 49.0351 -138.6994 88° East 624 718 34,000  Level FlightAware Transoceanic
08:58AM 49.0404 -138.4391 88° East 624 718 34,000  Level FlightAware Transoceanic
08:59AM 49.0451 -138.1788 89° East 624 718 34,000  Level FlightAware Transoceanic
09:00AM 49.0492 -137.9184 89° East 625 719 34,000  Level FlightAware Transoceanic
09:00AM 49.0500 -137.7667 89° East 622 716 34,000  Level Oakland Oceanic (ODAPS)
09:01AM 49.0527 -137.6579 89° East 625 719 34,000  Level FlightAware Transoceanic
09:02AM 49.0557 -137.3974 89° East 625 719 34,000  Level FlightAware Transoceanic
09:03AM 49.0580 -137.1369 89° East 625 719 34,000  Level FlightAware Transoceanic
09:04AM 49.0598 -136.8764 90° East 625 719 34,000  Level FlightAware Transoceanic
09:05AM 49.0610 -136.6158 90° East 625 719 34,000  Level FlightAware Transoceanic
09:06AM 49.0606 -136.2469 90° East 622 716 34,000  Level FlightAware Transoceanic
09:07AM 49.0605 -135.9936 90° East 622 716 34,000  Level FlightAware Transoceanic
09:08AM 49.0598 -135.7402 90° East 622 716 34,000  Level FlightAware Transoceanic
09:09AM 49.0585 -135.4869 91° East 622 716 34,000  Level FlightAware Transoceanic
09:10AM 49.0567 -135.2336 91° East 622 716 34,000  Level FlightAware Transoceanic
09:11AM 49.0543 -134.9804 91° East 622 716 34,000  Level FlightAware Transoceanic
09:12AM 49.0513 -134.7271 91° East 622 716 34,000  Level FlightAware Transoceanic
09:13AM 49.0479 -134.4739 91° East 622 716 34,000  Level FlightAware Transoceanic
09:14AM 49.0438 -134.2207 91° East 622 716 34,000  Level FlightAware Transoceanic
09:15AM 49.0392 -133.9676 92° East 622 716 34,000  Level FlightAware Transoceanic
09:16AM 49.0341 -133.7145 92° East 622 716 34,000  Level FlightAware Transoceanic
09:17AM 49.0284 -133.4615 92° East 622 716 34,000  Level FlightAware Transoceanic
09:18AM 49.0221 -133.2085 92° East 622 716 34,000  Level FlightAware Transoceanic
09:19AM 49.0153 -132.9556 92° East 622 716 34,000  Level FlightAware Transoceanic
09:20AM 49.0079 -132.7027 93° East 622 716 34,000  Level FlightAware Transoceanic
09:21AM 49.0000 -132.4500 92° East 622 716 34,000  Level FlightAware Transoceanic
09:22AM 48.9933 -132.1748 92° East 622 716 34,000 660 Level FlightAware Transoceanic
09:22AM 48.9667 -132.0000 93° East 320 368 35,000  Climbing Vancouver Center
09:23AM 48.9860 -131.8996 92° East 622 716 34,000  Descending FlightAware Transoceanic
09:23AM 48.9667 -131.7333 90° East 600 690 35,000  Climbing Vancouver Center
09:24AM 48.9779 -131.6246 93° East 622 716 34,000  Descending FlightAware Transoceanic
09:24AM 48.9667 -131.4667 90° East 620 713 35,000  Climbing Vancouver Center
09:25AM 48.9693 -131.3496 93° East 622 716 34,000  Descending FlightAware Transoceanic
09:25AM 48.9500 -131.2000 95° East 620 713 35,000  Climbing Vancouver Center
09:26AM 48.9600 -131.0748 93° East 622 716 34,000  Descending FlightAware Transoceanic
09:26AM 48.9500 -130.9500 90° East 620 713 35,000 660 Climbing Vancouver Center
09:27AM 48.9517 -130.8447 93° East  Level FlightAware Approximate
09:27AM 48.9333 -130.6833 95° East 610 702 35,000  Level Vancouver Center
09:28AM 48.9333 -130.4333 90° East 610 702 35,000  Level Vancouver Center
09:29AM 48.9167 -130.1500 95° East 620 713 35,000  Level Vancouver Center
09:30AM 48.9000 -129.9167 96° East 610 702 35,000  Level Vancouver Center
09:37AM 48.8400 -128.0250 96° East 610 702 35,000  Level FlightAware
09:38AM 48.8380 -127.8030 91° East 611 703 35,000  Level FlightAware
09:39AM 48.8360 -127.6320 91° East 611 703 35,000  Level FlightAware
09:39AM 48.8320 -127.4570 92° East 611 703 35,000  Level FlightAware
09:40AM 48.8270 -127.2140 92° East 611 703 35,000 420 Level FlightAware
09:41AM 48.8210 -126.9660 92° East 611 703 35,900 1,020 Climbing FlightAware
09:42AM 48.8160 -126.7700 92° East 605 696 36,800 720 Climbing FlightAware
09:43AM 48.8120 -126.6010 92° East 606 697 37,000 120 Climbing FlightAware
09:43AM 48.8080 -126.4320 92° East 605 696 37,000  Level FlightAware
09:44AM 48.8030 -126.2380 92° East 605 696 37,000  Level FlightAware
09:45AM 48.7980 -126.0900 93° East 605 696 37,000  Level FlightAware
09:46AM 48.7920 -125.8790 92° East 605 696 37,000  Level FlightAware
09:46AM 48.7870 -125.7180 93° East 606 697 37,000  Level FlightAware
09:47AM 48.7810 -125.5270 93° East 608 700 37,000  Level FlightAware
09:48AM 48.7750 -125.3540 93° East 607 699 37,000  Level FlightAware
09:48AM 48.7690 -125.1800 93° East 606 697 37,000  Level FlightAware
09:49AM 48.7620 -124.9900 93° East 606 697 37,000  Level FlightAware
09:50AM 48.7550 -124.8210 94° East 604 695 37,000  Level FlightAware
09:50AM 48.7480 -124.6530 94° East 601 692 37,000  Level FlightAware
09:51AM 48.7400 -124.4650 94° East 600 690 37,000  Level FlightAware
09:52AM 48.7320 -124.2770 94° East 600 690 37,000  Level FlightAware
09:53AM 48.7240 -124.1100 94° East 601 692 37,000  Level FlightAware
09:53AM 48.7170 -123.9420 94° East 602 693 37,000  Level FlightAware
09:54AM 48.7080 -123.7540 94° East 603 694 37,000  Level FlightAware
09:55AM 48.6990 -123.5860 95° East 604 695 37,000  Level FlightAware
09:55AM 48.6910 -123.4220 94° East 604 695 37,000  Level FlightAware
09:56AM 48.6810 -123.2280 94° East 606 697 37,000  Level FlightAware
09:57AM 48.6720 -123.0630 95° East 609 701 37,000  Level FlightAware
09:58AM 48.6610 -122.8690 95° East 610 702 37,000  Level FlightAware
09:58AM 48.6510 -122.7040 95° East 610 702 37,000  Level FlightAware
09:59AM 48.6430 -122.5300 94° East 609 701 37,000  Level FlightAware
10:00AM 48.6400 -122.3430 91° East 610 702 37,000  Level FlightAware
10:00AM 48.6360 -122.1690 92° East 609 701 37,000  Level FlightAware
10:01AM 48.6320 -121.9870 92° East 608 700 37,000  Level FlightAware
10:02AM 48.6270 -121.8140 92° East 608 700 37,000  Level FlightAware
10:02AM 48.6210 -121.6410 93° East 606 697 37,000  Level FlightAware
10:03AM 48.6150 -121.4640 93° East 605 696 37,000  Level FlightAware
10:04AM 48.6080 -121.2670 93° East 600 690 37,000  Level FlightAware
10:05AM 48.6020 -121.0950 93° East 598 688 37,000  Level FlightAware
10:05AM 48.5950 -120.9210 93° East 594 684 37,000  Level FlightAware
10:06AM 48.5880 -120.7430 93° East 593 682 37,000  Level FlightAware
10:07AM 48.5820 -120.5830 93° East 587 676 37,000  Level FlightAware
10:07AM 48.5740 -120.4000 94° East 584 672 37,000  Level FlightAware
10:08AM 48.5690 -120.2680 93° East 584 672 37,000  Level FlightAware
10:09AM 48.5600 -120.0740 94° East 576 663 37,000  Level FlightAware
10:09AM 48.5520 -119.8980 94° East 576 663 37,000  Level FlightAware
10:10AM 48.5420 -119.6810 94° East 581 669 37,000  Level FlightAware
10:11AM 48.5320 -119.4700 94° East 582 670 37,000  Level FlightAware
10:12AM 48.5220 -119.2600 94° East 582 670 37,000  Level FlightAware
10:13AM 48.5160 -119.1390 94° East 582 670 37,000  Level FlightAware
10:14AM 48.5070 -118.9290 94° East 582 670 37,000  Level FlightAware
10:14AM 48.5010 -118.8050 94° East 582 670 37,000  Level FlightAware
10:15AM 48.4930 -118.6460 94° East 582 670 37,000  Level FlightAware
10:16AM 48.4880 -118.5190 93° East 582 670 37,000  Level FlightAware
10:17AM 48.4800 -118.3470 94° East 582 670 37,000  Level FlightAware
10:17AM 48.4740 -118.2230 94° East 582 670 37,000  Level FlightAware
10:18AM 48.4680 -118.1020 94° East 582 670 37,000  Level FlightAware
10:18AM 48.4620 -117.9780 94° East 582 670 37,000  Level FlightAware
10:19AM 48.4550 -117.8130 94° East 582 670 37,000  Level FlightAware
10:20AM 48.4490 -117.6860 94° East 582 670 37,000  Level FlightAware
10:21AM 48.3969 -117.2044 94° East 586 674 37,000  Level Seattle Center
10:21AM 48.3667 -117.0333 105° East 590 679 37,000  Level Vancouver Center
10:22AM 48.3792 -116.9583 76° East 589 678 37,000  Level Seattle Center
10:23AM 48.3617 -116.7133 96° East 588 677 37,000  Level Seattle Center
10:24AM 48.3428 -116.4686 97° East 588 677 37,000  Level Seattle Center
10:29AM 48.2310 -115.1130 97° East 37,000  Level FlightAware
10:30AM 48.2160 -114.9480 98° East 572 658 37,000  Level FlightAware
10:31AM 48.2020 -114.7910 98° East 571 657 37,000  Level FlightAware
10:32AM 48.1820 -114.5710 98° East 573 659 37,000  Level FlightAware
10:32AM 48.1710 -114.4570 98° East 572 658 37,000  Level FlightAware
10:33AM 48.1550 -114.2900 98° East 565 650 37,000  Level FlightAware
10:33AM 48.1410 -114.1390 98° East 563 648 37,000  Level FlightAware
10:34AM 48.1240 -113.9660 98° East 564 649 37,000  Level FlightAware
10:35AM 48.1070 -113.7970 99° East 564 649 37,000  Level FlightAware
10:36AM 48.0940 -113.6560 98° East 564 649 37,000  Level FlightAware
10:36AM 48.0820 -113.5340 98° East 564 649 37,000  Level FlightAware
10:37AM 48.0450 -113.1990 99° East 561 646 37,000  Level FlightAware
10:38AM 48.0300 -113.0530 99° East 561 646 37,000  Level FlightAware
10:39AM 48.0140 -112.9000 99° East 563 648 37,000  Level FlightAware
10:40AM 47.9940 -112.7190 99° East 563 648 37,000  Level FlightAware
10:40AM 47.9720 -112.5200 99° East 559 643 37,000  Level FlightAware
10:41AM 47.9470 -112.3000 100° East 556 640 37,000  Level FlightAware
10:42AM 47.9270 -112.0980 98° East 556 640 37,000  Level FlightAware
10:43AM 47.9160 -111.9810 98° East 556 640 37,000  Level FlightAware
10:44AM 47.8850 -111.7720 102° East 37,000  Level FlightAware
10:44AM 47.8750 -111.6900 102° East 555 639 37,000  Level Salt Lake Center
10:45AM 47.8481 -111.4631 100° East 554 638 37,000  Level Salt Lake Center
10:46AM 47.8147 -111.1883 100° East 553 636 37,000  Level Salt Lake Center
10:47AM 47.7864 -110.9625 100° East 550 633 37,000  Level Salt Lake Center
10:48AM 47.7583 -110.7383 100° East 548 631 37,000  Level Salt Lake Center
10:49AM 47.7303 -110.5164 101° East 547 629 37,000  Level Salt Lake Center
10:50AM 47.6997 -110.2975 102° East 543 625 37,000  Level Salt Lake Center
10:51AM 47.6703 -110.0792 101° East 542 624 37,000  Level Salt Lake Center
10:53AM 47.6397 -109.8608 102° East 541 623 37,000  Level Salt Lake Center
10:54AM 47.6072 -109.5969 100° East 543 625 37,000  Level Salt Lake Center
10:55AM 47.5769 -109.3797 102° East 541 623 37,000  Level Salt Lake Center
10:56AM 47.5450 -109.1614 102° East 543 625 37,000  Level Salt Lake Center
10:57AM 47.5144 -108.9456 102° East 539 620 37,000  Level Salt Lake Center
10:58AM 47.4828 -108.7289 102° East 541 623 37,000  Level Salt Lake Center
10:59AM 47.4508 -108.5122 102° East 540 621 37,000  Level Salt Lake Center
11:00AM 47.4172 -108.2972 103° East 540 621 37,000  Level Salt Lake Center
11:01AM 47.3772 -108.0367 103° East 539 620 37,000  Level Salt Lake Center
11:02AM 47.3453 -107.8300 103° East 540 621 37,000  Level Salt Lake Center
11:03AM 47.3086 -107.5919 103° East 536 617 37,000  Level Salt Lake Center
11:04AM 47.2758 -107.3872 103° East 536 617 37,000  Level Salt Lake Center
11:05AM 47.2375 -107.1517 103° East 532 612 37,000  Level Salt Lake Center
11:06AM 47.2044 -106.9497 103° East 531 611 37,000  Level Salt Lake Center
11:07AM 47.1642 -106.7136 104° East 532 612 37,000  Level Salt Lake Center
11:08AM 47.1314 -106.5106 103° East 533 613 37,000  Level Salt Lake Center
11:09AM 47.0969 -106.3086 104° East 532 612 37,000  Level Salt Lake Center
11:10AM 47.0611 -106.1064 105° East 532 612 37,000  Level Salt Lake Center
11:11AM 47.0183 -105.8561 104° East 530 610 37,000  Level Salt Lake Center
11:12AM 46.9808 -105.6475 105° East 531 611 37,000  Level Salt Lake Center
11:13AM 46.9442 -105.4394 104° East 532 612 37,000  Level Salt Lake Center
11:14AM 46.9047 -105.2297 105° East 535 616 37,000  Level Salt Lake Center
11:15AM 46.8664 -105.0211 105° East 535 616 37,000  Level Salt Lake Center
11:16AM 46.8189 -104.7711 105° East 535 616 37,000  Level Salt Lake Center
11:17AM 46.7819 -104.5669 105° East 531 611 37,000  Level Salt Lake Center
11:18AM 46.7433 -104.3608 105° East 530 610 37,000  Level Salt Lake Center
11:19AM 46.7050 -104.1581 105° East 526 605 37,000  Level Salt Lake Center
11:20AM 46.6642 -103.9514 106° East 530 610 37,000  Level Salt Lake Center
11:21AM 46.6247 -103.7444 105° East 533 613 37,000  Level Salt Lake Center
11:22AM 46.5861 -103.5447 106° East 531 611 37,000  Level Minneapolis Center
11:23AM 46.5450 -103.3403 106° East 531 611 37,000  Level Minneapolis Center
11:24AM 46.5036 -103.1344 106° East 532 612 37,000  Level Minneapolis Center
11:25AM 46.4622 -102.9308 106° East 531 611 37,000  Level Minneapolis Center
11:26AM 46.4117 -102.6875 107° East 528 608 37,000  Level Minneapolis Center
11:27AM 46.3728 -102.4789 105° East 532 612 37,000  Level Minneapolis Center
11:29AM 46.3311 -102.2761 107° East 533 613 37,000  Level Minneapolis Center
11:30AM 46.2878 -102.0758 107° East 529 609 37,000  Level Minneapolis Center
11:31AM 46.2408 -101.8808 109° East 524 603 37,000  Level Minneapolis Center
11:32AM 46.1922 -101.6831 109° East 522 601 37,000  Level Minneapolis Center
11:33AM 46.1408 -101.4389 107° East 525 604 37,000  Level Minneapolis Center
11:34AM 46.1036 -101.2325 105° East 527 606 37,000  Level Minneapolis Center
11:35AM 46.0803 -101.0189 99° East 530 610 37,000  Level Minneapolis Center
11:36AM 46.0511 -100.8111 101° East 528 608 37,000  Level Minneapolis Center
11:37AM 46.0231 -100.6031 101° East 528 608 37,000  Level Minneapolis Center
11:38AM 45.9936 -100.3958 101° East 527 606 37,000  Level Minneapolis Center
11:39AM 45.9642 -100.1889 101° East 527 606 37,000  Level Minneapolis Center
11:40AM 45.9281 -99.9389 102° East 529 609 37,000  Level Minneapolis Center
11:41AM 45.8975 -99.7322 102° East 527 606 37,000  Level Minneapolis Center
11:42AM 45.8672 -99.5231 102° East 529 609 37,000  Level Minneapolis Center
11:43AM 45.8353 -99.3169 102° East 529 609 37,000  Level Minneapolis Center
11:49AM 45.6430 -98.0980 102° East 531 611 37,000  Level FlightAware
11:49AM 45.6220 -97.9650 103° East 530 610 37,000  Level FlightAware
11:50AM 45.6000 -97.8320 103° East 531 611 37,000  Level FlightAware
11:51AM 45.5750 -97.6820 103° East 532 612 37,000  Level FlightAware
11:52AM 45.5500 -97.5390 104° East 533 613 37,000  Level FlightAware
11:52AM 45.5250 -97.3920 104° East 534 615 37,000  Level FlightAware
11:53AM 45.5030 -97.2620 104° East 537 618 37,000  Level FlightAware
11:54AM 45.4750 -97.0970 104° East 538 619 37,000  Level FlightAware
11:54AM 45.4520 -96.9690 104° East 538 619 37,000  Level FlightAware
11:55AM 45.4270 -96.8250 104° East 538 619 37,000  Level FlightAware
11:56AM 45.4040 -96.6910 104° East 539 620 37,000  Level FlightAware
11:56AM 45.3790 -96.5500 104° East 540 621 37,000  Level FlightAware
11:57AM 45.3470 -96.3750 105° East 541 623 37,000  Level FlightAware
11:58AM 45.3220 -96.2370 104° East 543 625 37,000  Level FlightAware
11:59AM 45.2950 -96.0850 104° East 544 626 37,000  Level FlightAware
11:59AM 45.2680 -95.9410 105° East 544 626 37,000  Level FlightAware
12:00PM 45.2450 -95.8200 105° East 542 624 37,000  Level FlightAware
12:01PM 45.2170 -95.6690 105° East 539 620 37,000  Level FlightAware
12:01PM 45.1900 -95.5230 105° East 539 620 37,000  Level FlightAware
12:02PM 45.1600 -95.3660 105° East 538 619 37,000  Level FlightAware
12:03PM 45.1340 -95.2300 105° East 537 618 37,000  Level FlightAware
12:03PM 45.1060 -95.0850 105° East 536 617 37,000  Level FlightAware
12:04PM 45.0800 -94.9500 105° East 537 618 37,000  Level FlightAware
12:05PM 45.0520 -94.8040 105° East 535 616 37,000  Level FlightAware
12:06PM 45.0240 -94.6630 106° East 533 613 37,000  Level FlightAware
12:06PM 44.9970 -94.5260 106° East 532 612 37,000  Level FlightAware
12:07PM 44.9700 -94.3930 106° East 530 610 37,000  Level FlightAware
12:08PM 44.9390 -94.2370 106° East 528 608 37,000  Level FlightAware
12:08PM 44.9110 -94.1010 106° East 528 608 37,000  Level FlightAware
12:09PM 44.8840 -93.9660 106° East 527 606 37,000  Level FlightAware
12:10PM 44.8540 -93.8240 107° East 527 606 37,000  Level FlightAware
12:10PM 44.8270 -93.6920 106° East 529 609 37,000  Level FlightAware
12:11PM 44.8000 -93.5600 106° East 530 610 37,000  Level FlightAware
12:12PM 44.7720 -93.4280 107° East 531 611 37,000  Level FlightAware
12:13PM 44.7380 -93.2660 106° East 530 610 37,000  Level FlightAware
12:13PM 44.7090 -93.1310 107° East 531 611 37,000  Level FlightAware
12:14PM 44.6820 -93.0020 106° East 532 612 37,000  Level FlightAware
12:15PM 44.6500 -92.8570 107° East 531 611 37,000  Level FlightAware
12:15PM 44.6220 -92.7280 107° East 531 611 37,000  Level FlightAware
12:16PM 44.5850 -92.5570 107° East 532 612 37,000  Level FlightAware
12:17PM 44.5630 -92.4550 107° East 532 612 37,000  Level FlightAware
12:17PM 44.5340 -92.3260 107° East 533 613 37,000  Level FlightAware
12:18PM 44.5060 -92.1980 107° East 532 612 37,000  Level FlightAware
12:19PM 44.4730 -92.0500 107° East 533 613 37,000  Level FlightAware
12:19PM 44.4410 -91.9120 108° East 531 611 37,000  Level FlightAware
12:20PM 44.4100 -91.7710 107° East 530 610 37,000  Level FlightAware
12:21PM 44.3780 -91.6340 108° East 530 610 37,000  Level FlightAware
12:21PM 44.3480 -91.5040 108° East 530 610 37,000  Level FlightAware
12:22PM 44.3160 -91.3640 108° East 530 610 37,000  Level FlightAware
12:23PM 44.2850 -91.2300 108° East 531 611 37,000  Level FlightAware
12:24PM 44.2520 -91.0900 108° East 532 612 37,000  Level FlightAware
12:24PM 44.2190 -90.9500 108° East 531 611 37,000  Level FlightAware
12:25PM 44.1900 -90.8240 108° East 529 609 37,000  Level FlightAware
12:26PM 44.1580 -90.6920 109° East 527 606 37,000  Level FlightAware
12:26PM 44.1270 -90.5630 108° East 525 604 37,000  Level FlightAware
12:27PM 44.0940 -90.4260 108° East 523 602 37,000  Level FlightAware
12:28PM 44.0560 -90.2710 109° East 520 598 37,000  Level FlightAware
12:28PM 44.0270 -90.1510 109° East 517 595 37,000  Level FlightAware
12:29PM 43.9930 -90.0130 109° East 516 594 37,000  Level FlightAware
12:30PM 43.9620 -89.8850 109° East 516 594 37,000  Level FlightAware
12:31PM 43.9290 -89.7530 109° East 516 594 37,000  Level FlightAware
12:31PM 43.8970 -89.6220 109° East 517 595 37,000  Level FlightAware
12:32PM 43.8640 -89.4930 109° East 519 597 37,000  Level FlightAware
12:33PM 43.8290 -89.3550 109° East 520 598 37,000  Level FlightAware
12:33PM 43.7970 -89.2260 109° East 521 600 37,000  Level FlightAware
12:34PM 43.7650 -89.1040 110° East 521 600 37,000  Level FlightAware
12:35PM 43.7290 -88.9630 109° East 522 601 37,000  Level FlightAware
12:36PM 43.6930 -88.8240 110° East 524 603 37,000  Level FlightAware
12:36PM 43.6610 -88.7010 110° East 527 606 37,000  Level FlightAware
12:37PM 43.6250 -88.5640 110° East 529 609 37,000  Level FlightAware
12:38PM 43.5950 -88.4490 110° East 512 589 37,000  Level FlightAware
12:38PM 43.5600 -88.3120 109° East 504 580 37,000  Level FlightAware
12:39PM 43.5250 -88.1830 110° East 503 579 37,000  Level FlightAware
12:40PM 43.4900 -88.0540 110° East 502 578 37,000  Level FlightAware
12:40PM 43.4560 -87.9260 110° East 500 575 37,000  Level FlightAware
12:41PM 43.4250 -87.8100 110° East 499 574 37,000  Level FlightAware
12:42PM 43.3890 -87.6760 110° East 497 572 37,000  Level FlightAware
12:42PM 43.3560 -87.5580 111° Southeast 494 568 37,000  Level FlightAware
12:43PM 43.3280 -87.4560 111° Southeast 493 567 37,000  Level FlightAware
12:44PM 43.2910 -87.3210 111° Southeast 491 565 37,000  Level FlightAware
12:45PM 43.2570 -87.1990 111° Southeast 489 563 37,000  Level FlightAware
12:45PM 43.2300 -87.1010 111° Southeast 487 560 37,000  Level FlightAware
12:46PM 43.1910 -86.9600 111° Southeast 484 557 37,000  Level FlightAware
12:47PM 43.1670 -86.8710 110° East 484 557 37,000  Level FlightAware
12:47PM 43.1250 -86.7290 112° Southeast 483 556 37,000  Level FlightAware
12:48PM 43.0930 -86.6120 110° East 482 555 37,000  Level FlightAware
12:49PM 43.0570 -86.4840 111° Southeast 482 555 37,000  Level FlightAware
12:49PM 43.0240 -86.3710 112° Southeast 482 555 37,000  Level FlightAware
12:50PM 42.9880 -86.2470 112° Southeast 480 552 37,000  Level FlightAware
12:51PM 42.9540 -86.1290 111° Southeast 478 550 37,000  Level FlightAware
12:51PM 42.9250 -86.0280 111° Southeast 478 550 37,000  Level FlightAware
12:52PM 42.8880 -85.8990 111° Southeast 479 551 37,000  Level FlightAware
12:53PM 42.8520 -85.7780 112° Southeast 480 552 37,000  Level FlightAware
12:54PM 42.8170 -85.6570 111° Southeast 481 554 37,000  Level FlightAware
12:54PM 42.7820 -85.5390 112° Southeast 481 554 37,000  Level FlightAware
12:55PM 42.7500 -85.4320 112° Southeast 482 555 37,000  Level FlightAware
12:56PM 42.7130 -85.3090 112° Southeast 482 555 37,000  Level FlightAware
12:56PM 42.6790 -85.1900 111° Southeast 487 560 37,000  Level FlightAware
12:57PM 42.6590 -85.0620 102° East 501 577 37,000  Level FlightAware
12:58PM 42.6450 -84.9320 98° East 502 578 37,000  Level FlightAware
12:58PM 42.6300 -84.7950 98° East 500 575 37,000  Level FlightAware
12:59PM 42.6200 -84.6820 97° East 504 580 37,000  Level FlightAware
01:00PM 42.6100 -84.5410 95° East 503 579 37,000  Level FlightAware
01:01PM 42.5990 -84.4060 96° East 503 579 37,000  Level FlightAware
01:01PM 42.5900 -84.2900 96° East 503 579 37,000  Level FlightAware
01:02PM 42.5790 -84.1620 97° East 503 579 37,000  Level FlightAware
01:03PM 42.5670 -84.0240 97° East 502 578 37,000  Level FlightAware
01:03PM 42.5540 -83.8790 97° East 517 595 37,000  Level FlightAware
01:04PM 42.5410 -83.7250 96° East 529 609 37,000  Level FlightAware
01:05PM 42.5260 -83.5580 97° East 527 606 37,000  Level FlightAware
01:06PM 42.5180 -83.4690 97° East 527 606 37,000  Level FlightAware
01:06PM 42.5050 -83.3250 97° East 528 608 37,000  Level FlightAware
01:07PM 42.4900 -83.1640 97° East 530 610 37,000  Level FlightAware
01:08PM 42.4740 -83.0000 97° East 530 610 37,000  Level FlightAware
01:09PM 42.4610 -82.8550 97° East 530 610 37,000  Level FlightAware
01:09PM 42.4440 -82.6870 98° East 530 610 37,000  Level FlightAware
01:10PM 42.4330 -82.5690 97° East 529 609 37,000  Level FlightAware
01:11PM 42.4150 -82.3890 98° East 528 608 37,000  Level FlightAware
01:12PM 42.4040 -82.2780 98° East 527 606 37,000  Level FlightAware
01:13PM 42.3860 -82.1120 98° East 526 605 37,000  Level FlightAware
01:13PM 42.3670 -81.9240 98° East 525 604 37,000  Level FlightAware
01:14PM 42.3520 -81.7840 98° East 524 603 37,000  Level FlightAware
01:15PM 42.3330 -81.6030 98° East 522 601 37,000  Level FlightAware
01:16PM 42.3190 -81.4740 98° East 522 601 37,000  Level FlightAware
01:16PM 42.3040 -81.3360 98° East 522 601 37,000  Level FlightAware
01:17PM 42.2910 -81.2170 98° East 521 600 37,000  Level FlightAware
01:18PM 42.2730 -81.0630 99° East 521 600 37,000  Level FlightAware
01:19PM 42.2580 -80.9250 98° East 522 601 37,000  Level FlightAware
01:19PM 42.2430 -80.7890 98° East 523 602 37,000  Level FlightAware
01:20PM 42.2220 -80.6160 99° East 522 601 37,000  Level FlightAware
01:21PM 42.2050 -80.4690 99° East 521 600 37,000  Level FlightAware
01:22PM 42.1900 -80.3440 99° East 521 600 37,000  Level FlightAware
01:22PM 42.1730 -80.2000 99° East 520 598 37,000  Level FlightAware
01:23PM 42.1570 -80.0680 99° East 521 600 37,000  Level FlightAware
01:24PM 42.1420 -79.9440 99° East 521 600 37,000  Level FlightAware
01:24PM 42.1260 -79.8160 100° East 520 598 37,000  Level FlightAware
01:25PM 42.1060 -79.6570 100° East 520 598 37,000  Level FlightAware
01:26PM 42.0890 -79.5170 99° East 520 598 37,000  Level FlightAware
01:27PM 42.0720 -79.3890 100° East 517 595 37,000  Level FlightAware
01:27PM 42.0450 -79.2950 111° Southeast 496 571 37,000  Level FlightAware
01:28PM 41.9800 -79.1880 129° Southeast 453 521 37,000  Level FlightAware
01:29PM 41.9230 -79.1070 133° Southeast 453 521 37,000  Level FlightAware
01:29PM 41.8670 -79.0240 132° Southeast 451 519 37,000  Level FlightAware
01:30PM 41.8060 -78.9320 132° Southeast 457 526 37,000  Level FlightAware
01:30PM 41.7790 -78.8570 116° Southeast 478 550 37,000  Level FlightAware
01:31PM 41.7760 -78.7320 92° East 508 585 37,000  Level FlightAware
01:32PM 41.7890 -78.5980 83° East 509 586 37,000  Level FlightAware
01:33PM 41.8040 -78.4610 82° East 509 586 37,000  Level FlightAware
01:33PM 41.8190 -78.3240 82° East 507 583 37,000  Level FlightAware
01:34PM 41.8290 -78.2240 82° East 508 585 37,000  Level FlightAware
01:35PM 41.8440 -78.0700 83° East 511 588 37,000  Level FlightAware
01:35PM 41.8560 -77.9450 83° East 511 588 37,000  Level FlightAware
01:36PM 41.8530 -77.8130 92° East 489 563 37,000  Level FlightAware
01:37PM 41.8320 -77.7270 108° East 481 554 37,000  Level FlightAware
01:37PM 41.7960 -77.5900 109° East 480 552 37,000  Level FlightAware
01:38PM 41.7610 -77.4590 110° East 477 549 37,000  Level FlightAware
01:39PM 41.7310 -77.3480 110° East 474 545 37,000  Level FlightAware
01:39PM 41.7075 -77.2598 110° East 474 545 37,000 -240 Level FlightAware ADS-B
01:40PM 41.6680 -77.1140 110° East 470 541 36,700 -480 Descending FlightAware
01:40PM 41.6583 -77.0760 109° East 468 539 36,500 -720 Descending FlightAware ADS-B
01:41PM 41.6345 -76.9898 110° East 464 534 36,200 -660 Descending FlightAware ADS-B
01:41PM 41.6120 -76.9048 109° East 456 525 35,800 -840 Descending FlightAware ADS-B
01:42PM 41.5901 -76.8260 110° East 454 522 35,400 -1,080 Descending FlightAware ADS-B
01:43PM 41.5661 -76.7388 110° East 457 526 34,700 -1,260 Descending FlightAware ADS-B
01:43PM 41.5438 -76.6566 110° East 461 531 34,100 -1,200 Descending FlightAware ADS-B
01:44PM 41.5201 -76.5708 110° East 463 533 33,500 -1,140 Descending FlightAware ADS-B
01:44PM 41.4960 -76.4825 110° East 463 533 32,900 -1,440 Descending FlightAware ADS-B
01:45PM 41.4726 -76.3986 110° East 474 545 32,000 -1,800 Descending FlightAware ADS-B
01:45PM 41.4487 -76.3130 110° East 478 550 31,100 -1,020 Descending FlightAware ADS-B
01:46PM 41.4252 -76.2300 111° Southeast 482 555 31,000 -600 Descending FlightAware ADS-B
01:46PM 41.4006 -76.1410 110° East 480 552 30,500 -1,200 Descending FlightAware ADS-B
01:47PM 41.3751 -76.0500 110° East 477 549 29,700 -1,260 Descending FlightAware ADS-B
01:47PM 41.3519 -75.9680 111° Southeast 471 542 29,200 -1,020 Descending FlightAware ADS-B
01:48PM 41.3281 -75.8827 110° East 460 529 28,700 -900 Descending FlightAware ADS-B
01:48PM 41.3055 -75.8040 111° Southeast 452 520 28,300 -1,080 Descending FlightAware ADS-B
01:49PM 41.2820 -75.7222 111° Southeast 440 506 27,600 -1,560 Descending FlightAware ADS-B
01:49PM 41.2578 -75.6492 114° Southeast 430 495 26,700 -1,980 Descending FlightAware ADS-B
01:50PM 41.2439 -75.6112 116° Southeast 427 491 26,100 -2,100 Descending FlightAware ADS-B
01:50PM 41.2210 -75.5386 113° Southeast 425 489 25,100 -1,980 Descending FlightAware ADS-B
01:51PM 41.1979 -75.4645 112° Southeast 420 483 24,100 -1,800 Descending FlightAware ADS-B
01:51PM 41.1743 -75.3919 113° Southeast 415 478 23,300 -1,140 Descending FlightAware ADS-B
01:52PM 41.1505 -75.3210 114° Southeast 406 467 23,000 -600 Descending FlightAware ADS-B
01:52PM 41.1280 -75.2558 115° Southeast 379 436 22,700 -900 Descending FlightAware ADS-B
01:53PM 41.1064 -75.1941 115° Southeast 363 418 22,100 -1,320 Descending FlightAware ADS-B
01:53PM 41.0856 -75.1320 114° Southeast 356 410 21,400 -1,140 Descending FlightAware ADS-B
01:54PM 41.0652 -75.0724 114° Southeast 355 409 21,000 -420 Descending FlightAware ADS-B
01:54PM 41.0441 -75.0115 115° Southeast 351 404 21,000  Level FlightAware ADS-B
01:55PM 41.0236 -74.9507 114° Southeast 350 403 21,000  Level FlightAware ADS-B
01:55PM 41.0039 -74.8918 114° Southeast 352 405 21,000  Level FlightAware ADS-B
01:56PM 40.9931 -74.8464 107° East 359 413 21,000  Level FlightAware ADS-B
01:56PM 40.9872 -74.8071 101° East 364 419 21,000  Level FlightAware ADS-B
01:56PM 40.9811 -74.7382 97° East 366 421 21,000  Level FlightAware ADS-B
01:57PM 40.9803 -74.7157 93° East 370 426 21,000  Level FlightAware ADS-B
01:57PM 40.9821 -74.6951 83° East 367 422 21,000  Level FlightAware ADS-B
01:57PM 40.9848 -74.6816 75° East 380 437 21,000  Level FlightAware ADS-B
01:57PM 40.9908 -74.6622 68° East 384 442 21,000  Level FlightAware ADS-B
01:57PM 40.9973 -74.6479 59° Northeast 389 448 21,000  Level FlightAware ADS-B
01:58PM 41.0294 -74.5876 55° Northeast 391 450 21,000  Level FlightAware ADS-B
01:58PM 41.0621 -74.5298 53° Northeast 388 447 21,000  Level FlightAware ADS-B
01:59PM 41.0983 -74.4649 53° Northeast 386 444 21,000  Level FlightAware ADS-B
01:59PM 41.1074 -74.4424 62° Northeast 379 436 21,000 -840 Level FlightAware ADS-B
01:59PM 41.1139 -74.4185 70° East 374 430 20,700 -1,500 Descending FlightAware ADS-B
01:59PM 41.1169 -74.3896 82° East 366 421 20,400 -1,200 Descending FlightAware ADS-B
01:59PM 41.1151 -74.3588 94° East 355 409 20,200 -720 Descending FlightAware ADS-B
02:00PM 41.1107 -74.3361 104° East 347 399 20,100 -720 Descending FlightAware ADS-B
02:00PM 41.1072 -74.3263 115° Southeast 343 395 20,000 -720 Descending FlightAware ADS-B
02:00PM 41.0973 -74.3031 120° Southeast 333 383 19,900 -540 Descending FlightAware ADS-B
02:00PM 41.0862 -74.2862 131° Southeast 323 372 19,800 -660 Descending FlightAware ADS-B
02:00PM 41.0783 -74.2769 138° Southeast 319 367 19,700 -660 Descending FlightAware ADS-B
02:01PM 41.0418 -74.2434 145° Southeast 311 358 19,400 -540 Descending FlightAware ADS-B
02:01PM 41.0048 -74.2126 148° Southeast 311 358 19,200 -600 Descending FlightAware ADS-B
02:01PM 40.9893 -74.1989 146° Southeast 312 359 19,000 -540 Descending FlightAware ADS-B
02:02PM 40.9770 -74.1826 135° Southeast 320 368 19,000  Level FlightAware ADS-B
02:02PM 40.9675 -74.1625 122° Southeast 331 381 19,000  Level FlightAware ADS-B
02:02PM 40.9436 -74.1066 119° Southeast 338 389 19,000 -420 Level FlightAware ADS-B
02:03PM 40.9209 -74.0509 118° Southeast 333 383 18,600 -840 Descending FlightAware ADS-B
02:03PM 40.9107 -74.0280 121° Southeast 330 380 18,400 -1,200 Descending FlightAware ADS-B
02:03PM 40.9013 -74.0075 121° Southeast 326 375 18,100 -1,440 Descending FlightAware ADS-B
02:03PM 40.9001 -74.0044 117° Southeast 325 374 18,100 -1,140 Level FlightAware ADS-B
02:04PM 40.8713 -73.9591 130° Southeast 317 365 17,500 -1,200 Descending FlightAware ADS-B
02:04PM 40.8572 -73.9371 130° Southeast 318 366 17,200 -1,200 Descending FlightAware ADS-B
02:04PM 40.8424 -73.9137 130° Southeast 312 359 16,900 -1,320 Descending FlightAware ADS-B
02:05PM 40.8135 -73.8684 130° Southeast 308 354 16,200 -1,380 Descending FlightAware ADS-B
02:05PM 40.7845 -73.8228 130° Southeast 304 350 15,500 -1,440 Descending FlightAware ADS-B
02:06PM 40.7558 -73.7780 130° Southeast 301 346 14,700 -1,440 Descending FlightAware ADS-B
02:06PM 40.7274 -73.7355 131° Southeast 294 338 14,000 -1,140 Descending FlightAware ADS-B
02:07PM 40.6800 -73.6630 131° Southeast 296 341 13,100 -720 Descending FlightAware
02:08PM 40.6608 -73.6362 133° Southeast 293 337 13,100 -240 Level FlightAware ADS-B
02:08PM 40.6287 -73.5881 131° Southeast 294 338 12,900 -1,200 Descending FlightAware ADS-B
02:09PM 40.6013 -73.5488 133° Southeast 290 334 11,800 -2,400 Descending FlightAware ADS-B
02:09PM 40.5808 -73.5263 140° Southeast 282 325 10,900 -2,640 Descending FlightAware ADS-B
02:09PM 40.5696 -73.5211 161° South 277 319 10,500 -2,340 Descending FlightAware ADS-B
02:09PM 40.5591 -73.5203 177° South 273 314 10,200 -2,580 Descending FlightAware ADS-B
02:10PM 40.5460 -73.5250 195° South 271 312 9,700 -2,640 Descending FlightAware ADS-B
02:10PM 40.5402 -73.5289 207° Southwest 270 311 9,500 -2,520 Descending FlightAware ADS-B
02:10PM 40.5335 -73.5343 211° Southwest 269 310 9,200 -2,280 Descending FlightAware ADS-B
02:10PM 40.5159 -73.5519 217° Southwest 266 306 8,600 -2,220 Descending FlightAware ADS-B
02:10PM 40.5008 -73.5675 218° Southwest 264 304 8,000 -2,160 Descending FlightAware ADS-B
02:11PM 40.4862 -73.5819 217° Southwest 262 302 7,500 -2,220 Descending FlightAware ADS-B
02:11PM 40.4716 -73.5961 216° Southwest 260 299 6,900 -2,340 Descending FlightAware ADS-B
02:11PM 40.4558 -73.6113 216° Southwest 258 297 6,300 -2,040 Descending FlightAware ADS-B
02:11PM 40.4400 -73.6273 218° Southwest 256 295 5,800 -1,920 Descending FlightAware ADS-B
02:12PM 40.4322 -73.6348 216° Southwest 253 291 5,500 -1,920 Descending FlightAware ADS-B
02:12PM 40.4140 -73.6680 234° Southwest 255 293 4,600 -1,560 Descending FlightAware
02:12PM 40.3988 -73.7068 243° Southwest 253 291 4,100 -840 Descending FlightAware ADS-B
02:13PM 40.3938 -73.7241 249° West 254 292 4,100  Level FlightAware ADS-B
02:13PM 40.3869 -73.7486 250° West 254 292 4,100  Level FlightAware ADS-B
02:13PM 40.3797 -73.7748 250° West 256 295 4,100  Level FlightAware ADS-B
02:14PM 40.3721 -73.8013 249° West 259 298 4,100  Level FlightAware ADS-B
02:14PM 40.3661 -73.8236 251° West 259 298 4,100  Level FlightAware ADS-B
02:14PM 40.3653 -73.8331 264° West 263 303 4,100  Level FlightAware ADS-B
02:14PM 40.3659 -73.8427 275° West 266 306 4,100  Level FlightAware ADS-B
02:14PM 40.3733 -73.8648 294° West 264 304 4,100  Level FlightAware ADS-B
02:14PM 40.3767 -73.8695 314° West 263 303 4,100  Level FlightAware ADS-B
02:14PM 40.3832 -73.8765 321° Northwest 258 297 4,100  Level FlightAware ADS-B
02:15PM 40.3897 -73.8807 334° Northwest 251 289 4,100  Level FlightAware ADS-B
02:15PM 40.3953 -73.8830 343° North 248 285 4,100  Level FlightAware ADS-B
02:15PM 40.3987 -73.8838 350° North 248 285 4,100  Level FlightAware ADS-B
02:15PM 40.4035 -73.8846 353° North 243 280 4,100 -600 Level FlightAware ADS-B
02:15PM 40.4110 -73.8850 358° North 239 275 4,000 -1,320 Descending FlightAware ADS-B
02:15PM 40.4295 -73.8857 358° North 238 274 3,600 -600 Descending FlightAware ADS-B
02:16PM 40.4770 -73.8870 359° North 213 245 3,400 -540 Descending FlightAware
02:16PM 40.4990 -73.8810 12° North 208 239 3,000 -1,080 Descending FlightAware
02:17PM 40.5290 -73.8580 30° Northeast 199 229 2,300 -1,200 Descending FlightAware
02:17PM 40.5500 -73.8430 28° Northeast 191 220 1,800 -1,140 Descending FlightAware
02:18PM 40.5740 -73.8230 32° Northeast 177 204 1,200 -1,020 Descending FlightAware
02:18PM 40.5920 -73.8090 31° Northeast 170 196 800 -780 Descending FlightAware
02:19PM 40.6020 -73.8020 28° Northeast 167 192 600 -720 Descending FlightAware
02:19PM 40.6180 -73.7890 32° Northeast 153 176 200 -840 Descending FlightAware
02:20PM 40.6370 -73.7740 31° Northeast 60 69 -420 Descending FlightAware
02:20PM 40.6390 -73.7720 37° Northeast 23 26  Level FlightAware
02:20PM 40.6400 -73.7730 323° Northwest 31 36  Level FlightAware